Impacts TAF Board
For situational awareness. Not to be used for flight planning purposes.
IDs:

KSAN - San Diego Intl Arpt, CA, US

Issued at 2053 UTC 02 Oct 2022
Updated at 2230 UTC 02 Oct 2022
Potential Impact None Slight Moderate High
Time<<03/11Z 03/12Z 03/13Z 03/14Z 03/15Z 03/16Z 03/17Z 03/18Z 03/19Z 03/20Z 03/21Z 03/22Z 03/23Z>>
Type PRVL PRVL PRVL PRVL PRVL PRVL PRVL PRVL PRVL PRVL PRVL PRVL PRVL
VIS >6 >6 >6 >6 >6 >6 >6 >6 >6 >6 >6 >6 >6
CIG 22 22 22 22 22 22 22 22 22 -- -- -- --
Cover BKN BKN BKN BKN BKN BKN BKN BKN BKN SCT SCT SCT SCT
FltCat MVFR MVFR MVFR MVFR MVFR MVFR MVFR MVFR MVFR VFR VFR VFR VFR
WX -- -- -- -- -- -- -- -- -- -- -- -- --
WDir VRB VRB VRB VRB VRB VRB VRB VRB VRB 290 290 290 290
WSpd 4 4 4 4 4 4 4 4 4 11 11 11 11
WGst -- -- -- -- -- -- -- -- -- -- -- -- --
WSHgt -- -- -- -- -- -- -- -- -- -- -- -- --
WSDir -- -- -- -- -- -- -- -- -- -- -- -- --
WSSpd -- -- -- -- -- -- -- -- -- -- -- -- --
Raw TAF
KSAN 022053Z 0221/0324 30011KT P6SM SCT025
  FM030300 VRB04KT P6SM BKN022
  FM031930 29011KT P6SM SCT025


METAR Board
Radar Display
Forecast Discussion
For situational awareness. Not to be used for flight planning purposes.